Time;durP1;ratioP1;P1;durP2;ratioP2;P2;SDS_P1;SDS_P2;PMS_P1;PMS_P2;Temp;Humidity;BMP_temperature;BMP_pressure;BME280_temperature;BME280_humidity;BME280_pressure;Samples;Min_cycle;Max_cycle;Signal;HPM_P1;HPM_P2
2022/05/11 00:06:33;;;;;;;;;;;14.60;99.90;;;;;;20934777;28;20033;-79
2022/05/11 00:16:34;;;;;;;8.15;5.90;;;14.60;99.90;;;;;;20937027;28;19966;-78
2022/05/11 00:26:35;;;;;;;11.67;6.10;;;14.50;99.90;;;;;;20930253;28;20119;-80
2022/05/11 00:36:36;;;;;;;11.00;7.00;;;14.40;99.90;;;;;;20931348;28;20033;-80
2022/05/11 00:46:52;;;;;;;13.17;6.17;;;14.20;99.90;;;;;;20933310;28;20317;-79
2022/05/11 00:56:59;;;;;;;10.32;5.90;;;14.00;99.90;;;;;;20934000;28;20033;-79
2022/05/11 01:07:01;;;;;;;11.23;6.53;;;13.70;99.90;;;;;;20929502;28;20100;-78
2022/05/11 01:17:02;;;;;;;9.20;6.68;;;13.30;99.90;;;;;;20931447;28;20021;-78
2022/05/11 01:27:30;;;;;;;8.40;5.97;;;13.10;99.90;;;;;;20929527;28;20041;-79
2022/05/11 01:37:36;;;;;;;11.25;5.88;;;13.00;99.90;;;;;;20931010;28;20534;-79
2022/05/11 01:47:37;;;;;;;8.63;6.60;;;13.00;99.90;;;;;;20938484;28;20036;-78
2022/05/11 01:57:37;;;;;;;12.13;6.43;;;13.00;99.90;;;;;;20930712;28;20053;-79
2022/05/11 02:07:50;;;;;;;11.60;7.20;;;12.90;99.90;;;;;;20928444;28;20112;-79
2022/05/11 02:17:51;;;;;;;8.60;6.30;;;12.80;99.90;;;;;;20940595;28;20116;-79
2022/05/11 02:27:52;;;;;;;11.87;6.17;;;12.70;99.90;;;;;;20943775;28;20055;-79
2022/05/11 02:37:59;;;;;;;10.02;6.50;;;12.60;99.90;;;;;;20947068;23;20091;-74
2022/05/11 02:48:03;;;;;;;13.27;6.57;;;12.70;99.90;;;;;;20836837;28;20046;-73
2022/05/11 02:58:05;;;;;;;8.98;5.88;;;12.40;99.90;;;;;;20835158;28;20120;-73
2022/05/11 03:08:06;;;;;;;10.02;6.35;;;12.40;99.90;;;;;;20835309;28;20068;-73
2022/05/11 03:18:07;;;;;;;9.20;6.50;;;12.10;99.90;;;;;;20834789;28;20108;-73
2022/05/11 03:28:08;;;;;;;11.77;6.37;;;12.00;99.90;;;;;;20833597;28;20124;-74
2022/05/11 03:38:09;;;;;;;14.13;7.20;;;12.00;99.90;;;;;;20833264;28;20101;-74
2022/05/11 03:48:10;;;;;;;11.27;6.65;;;12.00;99.90;;;;;;20832445;28;20423;-73
2022/05/11 03:58:13;;;;;;;9.60;6.53;;;11.80;99.90;;;;;;20835975;28;20084;-73
2022/05/11 04:08:13;;;;;;;8.20;6.13;;;11.90;99.90;;;;;;20830870;28;20095;-73
2022/05/11 04:18:14;;;;;;;8.00;5.03;;;12.50;99.90;;;;;;20829965;28;20025;-73
2022/05/11 04:28:15;;;;;;;6.13;4.70;;;13.10;99.90;;;;;;20829059;28;20061;-74
2022/05/11 04:38:16;;;;;;;7.77;5.20;;;13.30;99.90;;;;;;20828685;28;20049;-73
2022/05/11 04:48:18;;;;;;;7.47;5.10;;;13.40;99.90;;;;;;20825662;28;20156;-73
2022/05/11 04:58:18;;;;;;;11.60;5.25;;;13.50;99.90;;;;;;20826733;28;20472;-74
2022/05/11 05:08:19;;;;;;;9.53;6.97;;;13.70;99.90;;;;;;20824524;28;20080;-74
2022/05/11 05:18:20;;;;;;;10.70;7.30;;;13.60;99.90;;;;;;20824429;28;20028;-73
2022/05/11 05:38:42;;;;;;;13.48;8.70;;;14.30;99.90;;;;;;20824945;28;20167;-74
2022/05/11 05:48:43;;;;;;;28.38;8.88;;;14.80;99.90;;;;;;20833149;28;20044;-75
2022/05/11 05:58:47;;;;;;;13.07;8.47;;;15.00;99.90;;;;;;20841009;28;20029;-75
2022/05/11 06:08:48;;;;;;;12.93;8.65;;;15.30;99.90;;;;;;20840159;28;20037;-75
2022/05/11 06:18:49;;;;;;;13.67;9.23;;;15.60;99.90;;;;;;20839397;28;20072;-75
2022/05/11 06:28:50;;;;;;;14.07;9.47;;;16.00;99.90;;;;;;20838473;28;20086;-75
2022/05/11 06:38:52;;;;;;;16.97;9.67;;;16.10;99.90;;;;;;20836228;28;20061;-75
2022/05/11 06:48:52;;;;;;;12.85;8.55;;;16.50;99.90;;;;;;20837394;28;20030;-75
2022/05/11 07:09:13;;;;;;;13.73;8.18;;;17.10;99.90;;;;;;20835503;28;20029;-75
2022/05/11 07:19:13;;;;;;;15.47;8.40;;;18.10;99.90;;;;;;20834825;28;20435;-75
2022/05/11 07:29:14;;;;;;;15.83;8.03;;;18.60;99.90;;;;;;20834179;28;20068;-75
2022/05/11 07:39:15;;;;;;;12.63;7.77;;;18.80;99.90;;;;;;20833130;28;20033;-75
2022/05/11 07:49:18;;;;;;;12.23;7.43;;;19.20;99.90;;;;;;20832635;28;20077;-75
2022/05/11 08:09:38;;;;;;;9.77;6.30;;;20.90;99.90;;;;;;20829276;28;20037;-75
2022/05/11 08:19:42;;;;;;;11.40;6.07;;;21.50;99.90;;;;;;20828504;28;20136;-75
2022/05/11 08:40:03;;;;;;;6.88;5.40;;;21.50;99.90;;;;;;20850147;22;20056;-76
2022/05/11 08:50:17;;;;;;;8.30;5.85;;;22.10;99.90;;;;;;20810372;28;20495;-76
2022/05/11 09:00:18;;;;;;;6.20;4.93;;;22.30;99.90;;;;;;20827055;28;20057;-76
2022/05/11 09:10:24;;;;;;;9.30;4.97;;;22.90;99.90;;;;;;20792465;28;20033;-76
2022/05/11 09:20:34;;;;;;;12.07;3.72;;;24.30;99.90;;;;;;20825781;28;20045;-77
2022/05/11 09:30:35;;;;;;;5.85;3.90;;;25.80;99.90;;;;;;20825472;28;20091;-76
2022/05/11 09:41:05;;;;;;;5.85;3.83;;;26.50;99.90;;;;;;20824659;28;20049;-77
2022/05/11 09:51:27;;;;;;;8.65;2.95;;;26.20;99.90;;;;;;20824831;28;20053;-76
2022/05/11 10:01:29;;;;;;;4.63;2.90;;;27.10;99.90;;;;;;20824260;28;20057;-76
2022/05/11 10:11:45;;;;;;;3.10;2.30;;;29.10;99.90;;;;;;20824011;28;20029;-76
2022/05/11 10:22:12;;;;;;;12.48;2.92;;;28.80;99.90;;;;;;20823436;28;20036;-76
2022/05/11 10:32:54;;;;;;;4.18;2.67;;;29.80;99.90;;;;;;20825248;28;20029;-77
2022/05/11 10:43:16;;;;;;;3.00;2.03;;;30.10;99.90;;;;;;20789065;28;20045;-76
2022/05/11 10:53:25;;;;;;;4.53;2.13;;;29.30;99.90;;;;;;20837232;28;20037;-75
2022/05/11 11:03:44;;;;;;;4.95;2.13;;;28.10;99.90;;;;;;20836159;28;20037;-76
2022/05/11 11:14:01;;;;;;;5.35;2.22;;;28.10;99.90;;;;;;20835516;28;20104;-76
2022/05/11 11:24:23;;;;;;;4.57;2.63;;;27.70;99.90;;;;;;20834671;28;20072;-76
2022/05/11 11:34:28;;;;;;;3.33;2.33;;;27.80;99.90;;;;;;20834164;28;20060;-75
2022/05/11 11:44:46;;;;;;;4.93;2.20;;;28.00;99.90;;;;;;20798691;28;20045;-76
2022/05/11 11:54:49;;;;;;;5.05;2.20;;;27.60;99.90;;;;;;20832672;28;20167;-75
2022/05/11 12:04:59;;;;;;;4.65;2.15;;;27.80;99.90;;;;;;20832208;28;20025;-75
2022/05/11 12:15:15;;;;;;;4.75;2.40;;;27.50;99.90;;;;;;20831307;28;20088;-75
2022/05/11 12:25:26;;;;;;;8.60;2.25;;;27.50;99.90;;;;;;20831269;28;20033;-76
2022/05/11 12:35:41;;;;;;;3.78;2.58;;;27.60;99.90;;;;;;20829976;28;20036;-75
2022/05/11 12:45:46;;;;;;;5.80;2.20;;;28.10;99.90;;;;;;20828136;28;20068;-75
2022/05/11 12:55:54;;;;;;;2.85;2.08;;;28.00;99.70;;;;;;20827315;28;20021;-76
2022/05/11 13:05:59;;;;;;;2.80;2.00;;;28.20;99.90;;;;;;20809646;28;20033;-75
2022/05/11 13:16:07;;;;;;;5.85;2.38;;;28.20;99.90;;;;;;20825945;28;20491;-76
2022/05/11 13:26:28;;;;;;;4.53;2.83;;;28.70;99.90;;;;;;20809963;28;20052;-75
2022/05/11 13:36:42;;;;;;;3.22;2.45;;;30.00;99.80;;;;;;20826704;28;20026;-75
2022/05/11 13:57:22;;;;;;;6.47;2.72;;;30.10;99.90;;;;;;20806191;28;20053;-75
2022/05/11 14:07:27;;;;;;;4.35;2.70;;;30.00;99.90;;;;;;20809296;28;20069;-75
2022/05/11 14:17:29;;;;;;;6.90;2.63;;;29.80;99.90;;;;;;20825715;28;20491;-75
2022/05/11 14:27:30;;;;;;;3.85;2.60;;;29.40;99.90;;;;;;20823336;28;20041;-75
2022/05/11 14:37:31;;;;;;;3.50;2.95;;;29.60;99.90;;;;;;20820682;28;20495;-75
2022/05/11 14:47:32;;;;;;;3.58;3.00;;;30.20;99.90;;;;;;20834799;22;20151;-77
2022/05/11 15:07:53;;;;;;;6.75;2.60;;;29.20;99.90;;;;;;20766056;28;20046;-76
2022/05/11 15:17:56;;;;;;;7.07;2.70;;;29.50;99.90;;;;;;20763573;28;20502;-75
2022/05/11 15:27:57;;;;;;;7.53;3.08;;;28.60;99.90;;;;;;20794025;28;20045;-76
2022/05/11 15:37:59;;;;;;;4.88;2.70;;;28.70;99.90;;;;;;20796590;28;20033;-75
2022/05/11 15:48:03;;;;;;;9.90;3.08;;;28.50;99.90;;;;;;20733468;28;20484;-75
2022/05/11 15:58:04;;;;;;;3.15;2.05;;;28.50;99.90;;;;;;20766772;28;20476;-76
2022/05/11 16:08:05;;;;;;;3.13;2.35;;;28.30;99.90;;;;;;20732099;28;20041;-76
2022/05/11 16:28:26;;;;;;;4.07;2.38;;;27.60;99.90;;;;;;20747969;28;20445;-75
2022/05/11 16:38:27;;;;;;;9.98;2.35;;;27.40;99.90;;;;;;20747223;28;20495;-75
2022/05/11 16:48:28;;;;;;;4.47;2.88;;;27.40;99.90;;;;;;20755989;28;20049;-75
2022/05/11 16:58:29;;;;;;;4.88;2.83;;;27.40;99.90;;;;;;20766431;28;20026;-76
2022/05/11 17:08:30;;;;;;;2.72;2.17;;;27.30;99.90;;;;;;20746108;28;20056;-76
2022/05/11 17:18:32;;;;;;;12.02;2.35;;;27.50;99.90;;;;;;20783319;28;20033;-76
2022/05/11 17:28:33;;;;;;;7.20;2.10;;;27.20;99.90;;;;;;20776760;28;20037;-76
2022/05/11 17:38:35;;;;;;;3.92;2.28;;;26.90;99.90;;;;;;20709772;28;20038;-76
2022/05/11 17:48:35;;;;;;;7.82;2.22;;;26.50;99.90;;;;;;20743303;28;20034;-76
2022/05/11 17:58:37;;;;;;;6.78;1.98;;;26.20;99.90;;;;;;20742642;28;20037;-77
2022/05/11 18:08:38;;;;;;;5.60;1.90;;;25.90;99.90;;;;;;20742691;28;20508;-76
2022/05/11 18:18:39;;;;;;;4.43;2.10;;;25.30;99.90;;;;;;20743440;28;20037;-76
2022/05/11 18:28:40;;;;;;;;;;;24.30;99.90;;;;;;20749215;28;20064;-75
2022/05/11 18:38:41;;;;;;;11.77;2.20;;;23.30;99.90;;;;;;20741117;28;19921;-76
2022/05/11 18:48:42;;;;;;;6.63;2.17;;;23.20;99.90;;;;;;20740475;28;20316;-76
2022/05/11 18:58:43;;;;;;;5.93;2.47;;;22.70;99.90;;;;;;20750899;28;20296;-77
2022/05/11 19:08:44;;;;;;;;;;;21.70;99.90;;;;;;20786789;28;20279;-76
2022/05/11 19:18:45;;;;;;;4.55;2.35;;;21.30;99.90;;;;;;20835831;28;19913;-76
2022/05/11 19:28:46;;;;;;;2.47;2.13;;;20.80;99.90;;;;;;20757076;28;20034;-76
2022/05/11 19:38:47;;;;;;;3.83;2.17;;;20.60;99.90;;;;;;20752990;28;20084;-76
2022/05/11 19:48:48;;;;;;;5.73;2.87;;;19.90;99.90;;;;;;20751587;28;20293;-77
2022/05/11 19:58:49;;;;;;;9.60;2.47;;;19.70;99.90;;;;;;20787589;28;20491;-76
2022/05/11 20:08:51;;;;;;;3.30;2.10;;;19.30;99.90;;;;;;20769731;28;20072;-76
2022/05/11 20:18:52;;;;;;;7.03;2.58;;;19.40;99.90;;;;;;20786137;28;20029;-76
2022/05/11 20:28:53;;;;;;;6.37;2.40;;;18.80;99.90;;;;;;20780012;28;20029;-76
2022/05/11 20:38:54;;;;;;;;;;;18.70;99.90;;;;;;20757560;28;20037;-77
2022/05/11 20:48:55;;;;;;;3.60;2.20;;;18.40;99.90;;;;;;20802125;23;20410;-74
2022/05/11 20:58:56;;;;;;;6.37;2.40;;;18.10;99.90;;;;;;20746318;28;20699;-75
2022/05/11 21:08:57;;;;;;;3.97;3.20;;;18.00;99.90;;;;;;20745982;28;20041;-75
2022/05/11 21:19:00;;;;;;;6.30;2.13;;;17.60;99.90;;;;;;20744765;28;20037;-75
2022/05/11 21:29:03;;;;;;;3.83;2.53;;;17.10;99.90;;;;;;20726912;28;20030;-75
2022/05/11 21:39:03;;;;;;;7.88;2.60;;;16.60;99.90;;;;;;20743670;28;20034;-75
2022/05/11 21:49:05;;;;;;;4.20;2.90;;;16.60;99.90;;;;;;20743209;28;20033;-75
2022/05/11 21:59:09;;;;;;;5.45;2.50;;;16.20;99.90;;;;;;20742767;28;20037;-74
2022/05/11 22:09:10;;;;;;;7.90;3.22;;;16.00;99.90;;;;;;20742634;28;20045;-75
2022/05/11 22:19:11;;;;;;;5.77;3.53;;;15.70;99.90;;;;;;20742097;28;20038;-75
2022/05/11 22:29:12;;;;;;;6.93;2.93;;;15.60;99.90;;;;;;20745787;28;20488;-75
2022/05/11 22:39:12;;;;;;;9.60;3.30;;;15.40;99.90;;;;;;20756736;28;20111;-75
2022/05/11 22:49:14;;;;;;;7.00;2.80;;;15.60;99.90;;;;;;20754680;28;20048;-75
2022/05/11 22:59:14;;;;;;;3.83;2.90;;;15.50;99.90;;;;;;20755189;28;20050;-75
2022/05/11 23:09:15;;;;;;;5.20;2.77;;;15.20;99.90;;;;;;20754679;28;20061;-75
2022/05/11 23:19:16;;;;;;;5.23;3.03;;;15.10;99.90;;;;;;20753993;28;20044;-75
2022/05/11 23:29:17;;;;;;;4.20;2.67;;;15.00;99.90;;;;;;20753247;28;20069;-76
2022/05/11 23:39:18;;;;;;;4.53;2.80;;;15.30;99.90;;;;;;20751893;28;20112;-75
2022/05/11 23:49:19;;;;;;;6.57;2.90;;;15.50;99.90;;;;;;20751367;28;20044;-75
2022/05/11 23:59:20;;;;;;;7.33;3.23;;;15.30;99.90;;;;;;20749520;28;20036;-75
